sensor_id;sensor_type;location;lat;lon;timestamp;P1;durP1;ratioP1;P2;durP2;ratioP2
25915;SDS011;13719;48.188;11.618;2023-11-19T00:00:19;2.47;;;2.38;;
25915;SDS011;13719;48.188;11.618;2023-11-19T00:02:47;2.30;;;2.20;;
25915;SDS011;13719;48.188;11.618;2023-11-19T00:05:16;2.13;;;2.03;;
25915;SDS011;13719;48.188;11.618;2023-11-19T00:07:44;2.60;;;2.50;;
25915;SDS011;13719;48.188;11.618;2023-11-19T00:10:15;2.60;;;2.50;;
25915;SDS011;13719;48.188;11.618;2023-11-19T00:12:45;2.42;;;2.33;;
25915;SDS011;13719;48.188;11.618;2023-11-19T00:15:15;2.58;;;2.47;;
25915;SDS011;13719;48.188;11.618;2023-11-19T00:17:45;2.08;;;1.98;;
25915;SDS011;13719;48.188;11.618;2023-11-19T00:20:16;2.30;;;2.20;;
25915;SDS011;13719;48.188;11.618;2023-11-19T00:22:45;2.10;;;2.00;;
25915;SDS011;13719;48.188;11.618;2023-11-19T00:25:17;2.60;;;2.50;;
25915;SDS011;13719;48.188;11.618;2023-11-19T00:27:45;2.35;;;2.25;;
25915;SDS011;13719;48.188;11.618;2023-11-19T00:30:14;2.13;;;2.03;;
25915;SDS011;13719;48.188;11.618;2023-11-19T00:32:43;2.65;;;2.50;;
25915;SDS011;13719;48.188;11.618;2023-11-19T00:35:12;2.47;;;2.30;;
25915;SDS011;13719;48.188;11.618;2023-11-19T00:37:41;2.58;;;2.47;;
25915;SDS011;13719;48.188;11.618;2023-11-19T00:40:12;2.20;;;2.10;;
25915;SDS011;13719;48.188;11.618;2023-11-19T00:42:44;2.10;;;2.00;;
25915;SDS011;13719;48.188;11.618;2023-11-19T00:45:12;2.05;;;1.95;;
25915;SDS011;13719;48.188;11.618;2023-11-19T00:47:41;2.47;;;2.38;;
25915;SDS011;13719;48.188;11.618;2023-11-19T00:50:09;2.38;;;2.28;;
25915;SDS011;13719;48.188;11.618;2023-11-19T00:52:39;2.20;;;2.10;;
25915;SDS011;13719;48.188;11.618;2023-11-19T00:55:08;2.05;;;1.95;;
25915;SDS011;13719;48.188;11.618;2023-11-19T00:57:37;2.22;;;2.13;;
25915;SDS011;13719;48.188;11.618;2023-11-19T01:00:08;2.30;;;2.20;;
25915;SDS011;13719;48.188;11.618;2023-11-19T01:02:45;2.33;;;2.22;;
25915;SDS011;13719;48.188;11.618;2023-11-19T01:05:17;2.47;;;2.38;;
25915;SDS011;13719;48.188;11.618;2023-11-19T01:07:48;2.03;;;1.92;;
25915;SDS011;13719;48.188;11.618;2023-11-19T01:10:16;2.40;;;2.30;;
25915;SDS011;13719;48.188;11.618;2023-11-19T01:12:45;2.65;;;2.55;;
25915;SDS011;13719;48.188;11.618;2023-11-19T01:15:15;2.40;;;2.30;;
25915;SDS011;13719;48.188;11.618;2023-11-19T01:17:45;2.50;;;2.40;;
25915;SDS011;13719;48.188;11.618;2023-11-19T01:20:16;2.40;;;2.30;;
25915;SDS011;13719;48.188;11.618;2023-11-19T01:22:45;2.60;;;2.50;;
25915;SDS011;13719;48.188;11.618;2023-11-19T01:25:15;2.70;;;2.60;;
25915;SDS011;13719;48.188;11.618;2023-11-19T01:27:43;2.63;;;2.38;;
25915;SDS011;13719;48.188;11.618;2023-11-19T01:30:12;2.70;;;2.60;;
25915;SDS011;13719;48.188;11.618;2023-11-19T01:32:42;2.30;;;2.20;;
25915;SDS011;13719;48.188;11.618;2023-11-19T01:35:11;2.30;;;2.20;;
25915;SDS011;13719;48.188;11.618;2023-11-19T01:37:39;2.45;;;2.35;;
25915;SDS011;13719;48.188;11.618;2023-11-19T01:40:08;2.60;;;2.42;;
25915;SDS011;13719;48.188;11.618;2023-11-19T01:42:38;2.30;;;2.20;;
25915;SDS011;13719;48.188;11.618;2023-11-19T01:45:07;2.15;;;2.05;;
25915;SDS011;13719;48.188;11.618;2023-11-19T01:47:37;2.58;;;2.40;;
25915;SDS011;13719;48.188;11.618;2023-11-19T01:50:07;2.30;;;2.20;;
25915;SDS011;13719;48.188;11.618;2023-11-19T01:52:36;2.90;;;2.80;;
25915;SDS011;13719;48.188;11.618;2023-11-19T01:55:05;2.13;;;2.03;;
25915;SDS011;13719;48.188;11.618;2023-11-19T01:57:35;2.28;;;2.17;;
25915;SDS011;13719;48.188;11.618;2023-11-19T02:00:05;2.20;;;2.10;;
25915;SDS011;13719;48.188;11.618;2023-11-19T02:02:38;2.13;;;2.03;;
25915;SDS011;13719;48.188;11.618;2023-11-19T02:05:09;2.05;;;1.95;;
25915;SDS011;13719;48.188;11.618;2023-11-19T02:07:37;2.72;;;2.63;;
25915;SDS011;13719;48.188;11.618;2023-11-19T02:10:06;2.65;;;2.45;;
25915;SDS011;13719;48.188;11.618;2023-11-19T02:12:41;2.40;;;2.30;;
25915;SDS011;13719;48.188;11.618;2023-11-19T02:15:10;2.20;;;2.10;;
25915;SDS011;13719;48.188;11.618;2023-11-19T02:17:38;2.30;;;2.20;;
25915;SDS011;13719;48.188;11.618;2023-11-19T02:20:09;3.20;;;3.10;;
25915;SDS011;13719;48.188;11.618;2023-11-19T02:22:38;2.65;;;2.55;;
25915;SDS011;13719;48.188;11.618;2023-11-19T02:25:07;2.85;;;2.75;;
25915;SDS011;13719;48.188;11.618;2023-11-19T02:27:46;2.92;;;2.83;;
25915;SDS011;13719;48.188;11.618;2023-11-19T02:30:15;2.80;;;2.70;;
25915;SDS011;13719;48.188;11.618;2023-11-19T02:32:44;3.10;;;3.00;;
25915;SDS011;13719;48.188;11.618;2023-11-19T02:35:12;2.97;;;2.88;;
25915;SDS011;13719;48.188;11.618;2023-11-19T02:37:40;2.95;;;2.85;;
25915;SDS011;13719;48.188;11.618;2023-11-19T02:40:09;3.08;;;2.97;;
25915;SDS011;13719;48.188;11.618;2023-11-19T02:42:39;2.75;;;2.65;;
25915;SDS011;13719;48.188;11.618;2023-11-19T02:45:09;3.20;;;3.10;;
25915;SDS011;13719;48.188;11.618;2023-11-19T02:47:40;3.35;;;3.25;;
25915;SDS011;13719;48.188;11.618;2023-11-19T02:50:10;2.60;;;2.50;;
25915;SDS011;13719;48.188;11.618;2023-11-19T02:52:40;2.33;;;2.20;;
25915;SDS011;13719;48.188;11.618;2023-11-19T02:55:09;1.95;;;1.85;;
25915;SDS011;13719;48.188;11.618;2023-11-19T02:57:39;2.38;;;2.28;;
25915;SDS011;13719;48.188;11.618;2023-11-19T03:00:16;1.92;;;1.83;;
25915;SDS011;13719;48.188;11.618;2023-11-19T03:02:45;2.22;;;2.13;;
25915;SDS011;13719;48.188;11.618;2023-11-19T03:05:14;2.20;;;2.10;;
25915;SDS011;13719;48.188;11.618;2023-11-19T03:07:43;2.33;;;2.22;;
25915;SDS011;13719;48.188;11.618;2023-11-19T03:10:11;2.20;;;2.10;;
25915;SDS011;13719;48.188;11.618;2023-11-19T03:12:41;2.47;;;2.38;;
25915;SDS011;13719;48.188;11.618;2023-11-19T03:15:10;2.15;;;2.03;;
25915;SDS011;13719;48.188;11.618;2023-11-19T03:17:40;2.20;;;2.10;;
25915;SDS011;13719;48.188;11.618;2023-11-19T03:20:09;2.15;;;2.05;;
25915;SDS011;13719;48.188;11.618;2023-11-19T03:22:41;2.20;;;2.10;;
25915;SDS011;13719;48.188;11.618;2023-11-19T03:25:10;2.30;;;2.20;;
25915;SDS011;13719;48.188;11.618;2023-11-19T03:27:39;2.38;;;2.28;;
25915;SDS011;13719;48.188;11.618;2023-11-19T03:30:09;2.10;;;1.90;;
25915;SDS011;13719;48.188;11.618;2023-11-19T03:32:39;2.00;;;1.90;;
25915;SDS011;13719;48.188;11.618;2023-11-19T03:35:08;1.98;;;1.88;;
25915;SDS011;13719;48.188;11.618;2023-11-19T03:37:38;1.92;;;1.83;;
25915;SDS011;13719;48.188;11.618;2023-11-19T03:40:07;2.10;;;2.00;;
25915;SDS011;13719;48.188;11.618;2023-11-19T03:42:37;2.00;;;1.90;;
25915;SDS011;13719;48.188;11.618;2023-11-19T03:45:06;2.00;;;1.90;;
25915;SDS011;13719;48.188;11.618;2023-11-19T03:47:34;1.70;;;1.70;;
25915;SDS011;13719;48.188;11.618;2023-11-19T03:50:05;2.10;;;2.00;;
25915;SDS011;13719;48.188;11.618;2023-11-19T03:52:34;1.80;;;1.70;;
25915;SDS011;13719;48.188;11.618;2023-11-19T03:55:05;1.98;;;1.88;;
25915;SDS011;13719;48.188;11.618;2023-11-19T03:57:35;1.90;;;1.80;;
25915;SDS011;13719;48.188;11.618;2023-11-19T04:00:03;2.10;;;2.00;;
25915;SDS011;13719;48.188;11.618;2023-11-19T04:02:35;2.20;;;2.10;;
25915;SDS011;13719;48.188;11.618;2023-11-19T04:05:05;2.10;;;2.00;;
25915;SDS011;13719;48.188;11.618;2023-11-19T04:07:34;1.85;;;1.75;;
25915;SDS011;13719;48.188;11.618;2023-11-19T04:10:02;1.98;;;1.88;;
25915;SDS011;13719;48.188;11.618;2023-11-19T04:12:31;2.00;;;1.90;;
25915;SDS011;13719;48.188;11.618;2023-11-19T04:14:59;2.08;;;1.98;;
25915;SDS011;13719;48.188;11.618;2023-11-19T04:17:27;1.70;;;1.70;;
25915;SDS011;13719;48.188;11.618;2023-11-19T04:19:56;1.70;;;1.60;;
25915;SDS011;13719;48.188;11.618;2023-11-19T04:22:26;1.75;;;1.75;;
25915;SDS011;13719;48.188;11.618;2023-11-19T04:24:55;1.80;;;1.75;;
25915;SDS011;13719;48.188;11.618;2023-11-19T04:27:23;1.65;;;1.65;;
25915;SDS011;13719;48.188;11.618;2023-11-19T04:29:51;1.50;;;1.50;;
25915;SDS011;13719;48.188;11.618;2023-11-19T04:32:22;1.60;;;1.60;;
25915;SDS011;13719;48.188;11.618;2023-11-19T04:34:51;2.00;;;1.90;;
25915;SDS011;13719;48.188;11.618;2023-11-19T04:37:20;1.80;;;1.70;;
25915;SDS011;13719;48.188;11.618;2023-11-19T04:39:49;1.83;;;1.80;;
25915;SDS011;13719;48.188;11.618;2023-11-19T04:42:18;1.65;;;1.60;;
25915;SDS011;13719;48.188;11.618;2023-11-19T04:44:46;1.77;;;1.75;;
25915;SDS011;13719;48.188;11.618;2023-11-19T04:47:15;1.80;;;1.80;;
25915;SDS011;13719;48.188;11.618;2023-11-19T04:49:43;1.80;;;1.70;;
25915;SDS011;13719;48.188;11.618;2023-11-19T04:52:12;2.08;;;1.98;;
25915;SDS011;13719;48.188;11.618;2023-11-19T04:54:40;1.70;;;1.70;;
25915;SDS011;13719;48.188;11.618;2023-11-19T04:57:11;1.73;;;1.70;;
25915;SDS011;13719;48.188;11.618;2023-11-19T04:59:39;1.60;;;1.60;;
25915;SDS011;13719;48.188;11.618;2023-11-19T05:02:08;1.60;;;1.60;;
25915;SDS011;13719;48.188;11.618;2023-11-19T05:04:37;1.60;;;1.58;;
25915;SDS011;13719;48.188;11.618;2023-11-19T05:07:05;1.70;;;1.70;;
25915;SDS011;13719;48.188;11.618;2023-11-19T05:09:34;1.80;;;1.70;;
25915;SDS011;13719;48.188;11.618;2023-11-19T05:12:02;1.60;;;1.60;;
25915;SDS011;13719;48.188;11.618;2023-11-19T05:14:32;1.42;;;1.42;;
25915;SDS011;13719;48.188;11.618;2023-11-19T05:17:00;1.75;;;1.65;;
25915;SDS011;13719;48.188;11.618;2023-11-19T05:19:29;2.13;;;2.03;;
25915;SDS011;13719;48.188;11.618;2023-11-19T05:21:57;2.05;;;1.60;;
25915;SDS011;13719;48.188;11.618;2023-11-19T05:24:26;1.50;;;1.50;;
25915;SDS011;13719;48.188;11.618;2023-11-19T05:26:54;1999.90;;;999.90;;
25915;SDS011;13719;48.188;11.618;2023-11-19T05:29:22;1999.90;;;999.90;;
25915;SDS011;13719;48.188;11.618;2023-11-19T05:31:52;1999.90;;;999.90;;
25915;SDS011;13719;48.188;11.618;2023-11-19T05:34:21;1999.90;;;999.90;;
25915;SDS011;13719;48.188;11.618;2023-11-19T05:36:51;1999.90;;;999.90;;
25915;SDS011;13719;48.188;11.618;2023-11-19T05:39:19;1999.90;;;999.90;;
25915;SDS011;13719;48.188;11.618;2023-11-19T05:41:48;1999.90;;;999.90;;
25915;SDS011;13719;48.188;11.618;2023-11-19T05:44:16;1999.90;;;999.90;;
25915;SDS011;13719;48.188;11.618;2023-11-19T05:46:45;1999.90;;;999.90;;
25915;SDS011;13719;48.188;11.618;2023-11-19T05:49:15;1999.90;;;999.90;;
25915;SDS011;13719;48.188;11.618;2023-11-19T05:51:44;1999.90;;;999.90;;
25915;SDS011;13719;48.188;11.618;2023-11-19T05:54:13;1999.90;;;999.90;;
25915;SDS011;13719;48.188;11.618;2023-11-19T05:56:42;1999.90;;;999.90;;
25915;SDS011;13719;48.188;11.618;2023-11-19T05:59:15;1999.90;;;999.90;;
25915;SDS011;13719;48.188;11.618;2023-11-19T06:01:44;1999.90;;;999.90;;
25915;SDS011;13719;48.188;11.618;2023-11-19T06:04:12;1999.90;;;999.90;;
25915;SDS011;13719;48.188;11.618;2023-11-19T06:06:43;1999.90;;;999.90;;
25915;SDS011;13719;48.188;11.618;2023-11-19T06:09:11;1999.90;;;999.90;;
25915;SDS011;13719;48.188;11.618;2023-11-19T06:11:40;1999.90;;;999.90;;
25915;SDS011;13719;48.188;11.618;2023-11-19T06:14:08;1999.90;;;999.90;;
25915;SDS011;13719;48.188;11.618;2023-11-19T06:16:37;1999.90;;;999.90;;
25915;SDS011;13719;48.188;11.618;2023-11-19T06:19:06;1999.90;;;999.90;;
25915;SDS011;13719;48.188;11.618;2023-11-19T06:21:36;1999.90;;;999.90;;
25915;SDS011;13719;48.188;11.618;2023-11-19T06:24:06;1999.90;;;999.90;;
25915;SDS011;13719;48.188;11.618;2023-11-19T06:26:35;1999.90;;;999.90;;
25915;SDS011;13719;48.188;11.618;2023-11-19T06:29:03;1999.90;;;999.90;;
25915;SDS011;13719;48.188;11.618;2023-11-19T06:31:32;1999.90;;;999.90;;
25915;SDS011;13719;48.188;11.618;2023-11-19T06:34:00;1999.90;;;999.90;;
25915;SDS011;13719;48.188;11.618;2023-11-19T06:36:28;1999.90;;;999.90;;
25915;SDS011;13719;48.188;11.618;2023-11-19T06:38:57;1999.90;;;999.90;;
25915;SDS011;13719;48.188;11.618;2023-11-19T06:41:27;1999.90;;;999.90;;
25915;SDS011;13719;48.188;11.618;2023-11-19T06:43:55;1999.90;;;999.90;;
25915;SDS011;13719;48.188;11.618;2023-11-19T06:46:24;1999.90;;;999.90;;
25915;SDS011;13719;48.188;11.618;2023-11-19T06:48:52;1999.90;;;999.90;;
25915;SDS011;13719;48.188;11.618;2023-11-19T06:51:20;1999.90;;;999.90;;
25915;SDS011;13719;48.188;11.618;2023-11-19T06:53:50;1999.90;;;999.90;;
25915;SDS011;13719;48.188;11.618;2023-11-19T06:56:19;1999.90;;;999.90;;
25915;SDS011;13719;48.188;11.618;2023-11-19T06:58:49;1999.90;;;999.90;;
25915;SDS011;13719;48.188;11.618;2023-11-19T07:01:18;1999.90;;;999.90;;
25915;SDS011;13719;48.188;11.618;2023-11-19T07:03:47;1999.90;;;999.90;;
25915;SDS011;13719;48.188;11.618;2023-11-19T07:06:17;1999.90;;;999.90;;
25915;SDS011;13719;48.188;11.618;2023-11-19T07:08:59;1999.90;;;999.90;;
25915;SDS011;13719;48.188;11.618;2023-11-19T07:11:32;1999.90;;;999.90;;
25915;SDS011;13719;48.188;11.618;2023-11-19T07:14:03;1999.90;;;999.90;;
25915;SDS011;13719;48.188;11.618;2023-11-19T07:16:32;1999.90;;;999.90;;
25915;SDS011;13719;48.188;11.618;2023-11-19T07:19:01;1999.90;;;999.90;;
25915;SDS011;13719;48.188;11.618;2023-11-19T07:21:29;1999.90;;;999.90;;
25915;SDS011;13719;48.188;11.618;2023-11-19T07:23:59;1999.90;;;999.90;;
25915;SDS011;13719;48.188;11.618;2023-11-19T07:26:27;1999.90;;;999.90;;
25915;SDS011;13719;48.188;11.618;2023-11-19T07:28:55;1999.90;;;999.90;;
25915;SDS011;13719;48.188;11.618;2023-11-19T07:31:25;1999.90;;;999.90;;
25915;SDS011;13719;48.188;11.618;2023-11-19T07:33:54;1999.90;;;999.90;;
25915;SDS011;13719;48.188;11.618;2023-11-19T07:36:22;1999.90;;;999.90;;
25915;SDS011;13719;48.188;11.618;2023-11-19T07:38:50;1999.90;;;999.90;;
25915;SDS011;13719;48.188;11.618;2023-11-19T07:41:19;1999.90;;;999.90;;
25915;SDS011;13719;48.188;11.618;2023-11-19T07:43:47;1999.90;;;999.90;;
25915;SDS011;13719;48.188;11.618;2023-11-19T07:46:17;1999.90;;;999.90;;
25915;SDS011;13719;48.188;11.618;2023-11-19T07:48:47;1999.90;;;999.90;;
25915;SDS011;13719;48.188;11.618;2023-11-19T07:51:15;1999.90;;;999.90;;
25915;SDS011;13719;48.188;11.618;2023-11-19T07:53:44;1999.90;;;999.90;;
25915;SDS011;13719;48.188;11.618;2023-11-19T07:56:12;1999.90;;;999.90;;
25915;SDS011;13719;48.188;11.618;2023-11-19T07:58:41;1999.90;;;999.90;;
25915;SDS011;13719;48.188;11.618;2023-11-19T08:01:10;1999.90;;;999.90;;
25915;SDS011;13719;48.188;11.618;2023-11-19T08:03:38;1999.90;;;999.90;;
25915;SDS011;13719;48.188;11.618;2023-11-19T08:06:24;1999.90;;;999.90;;
25915;SDS011;13719;48.188;11.618;2023-11-19T08:08:52;1999.90;;;999.90;;
25915;SDS011;13719;48.188;11.618;2023-11-19T08:11:21;1999.90;;;999.90;;
25915;SDS011;13719;48.188;11.618;2023-11-19T08:13:49;1999.90;;;999.90;;
25915;SDS011;13719;48.188;11.618;2023-11-19T08:16:17;1999.90;;;999.90;;
25915;SDS011;13719;48.188;11.618;2023-11-19T08:18:46;1999.90;;;999.90;;
25915;SDS011;13719;48.188;11.618;2023-11-19T08:21:14;1999.90;;;999.90;;
25915;SDS011;13719;48.188;11.618;2023-11-19T08:23:44;1999.90;;;999.90;;
25915;SDS011;13719;48.188;11.618;2023-11-19T08:26:14;1999.90;;;999.90;;
25915;SDS011;13719;48.188;11.618;2023-11-19T08:28:47;1999.90;;;999.90;;
25915;SDS011;13719;48.188;11.618;2023-11-19T08:31:15;1999.90;;;999.90;;
25915;SDS011;13719;48.188;11.618;2023-11-19T08:33:43;1999.90;;;999.90;;
25915;SDS011;13719;48.188;11.618;2023-11-19T08:36:15;1999.90;;;999.90;;
25915;SDS011;13719;48.188;11.618;2023-11-19T08:38:45;1999.90;;;999.90;;
25915;SDS011;13719;48.188;11.618;2023-11-19T08:41:15;1999.90;;;999.90;;
25915;SDS011;13719;48.188;11.618;2023-11-19T08:43:44;1999.90;;;999.90;;
25915;SDS011;13719;48.188;11.618;2023-11-19T08:46:13;1999.90;;;999.90;;
25915;SDS011;13719;48.188;11.618;2023-11-19T08:48:41;1999.90;;;999.90;;
25915;SDS011;13719;48.188;11.618;2023-11-19T08:51:10;1999.90;;;999.90;;
25915;SDS011;13719;48.188;11.618;2023-11-19T08:53:38;1999.90;;;999.90;;
25915;SDS011;13719;48.188;11.618;2023-11-19T08:56:08;1999.90;;;999.90;;
25915;SDS011;13719;48.188;11.618;2023-11-19T08:58:37;1999.90;;;999.90;;
25915;SDS011;13719;48.188;11.618;2023-11-19T09:01:05;1999.90;;;999.90;;
25915;SDS011;13719;48.188;11.618;2023-11-19T09:03:33;1999.90;;;999.90;;
25915;SDS011;13719;48.188;11.618;2023-11-19T09:06:03;1999.90;;;999.90;;
25915;SDS011;13719;48.188;11.618;2023-11-19T09:08:31;1999.90;;;999.90;;
25915;SDS011;13719;48.188;11.618;2023-11-19T09:11:00;1999.90;;;999.90;;
25915;SDS011;13719;48.188;11.618;2023-11-19T09:13:30;1999.90;;;999.90;;
25915;SDS011;13719;48.188;11.618;2023-11-19T09:15:58;1999.90;;;999.90;;
25915;SDS011;13719;48.188;11.618;2023-11-19T09:18:30;1999.90;;;999.90;;
25915;SDS011;13719;48.188;11.618;2023-11-19T09:20:59;1999.90;;;999.90;;
25915;SDS011;13719;48.188;11.618;2023-11-19T09:23:28;1999.90;;;999.90;;
25915;SDS011;13719;48.188;11.618;2023-11-19T09:25:59;1999.90;;;999.90;;
25915;SDS011;13719;48.188;11.618;2023-11-19T09:28:27;1999.90;;;999.90;;
25915;SDS011;13719;48.188;11.618;2023-11-19T09:30:57;1999.90;;;999.90;;
25915;SDS011;13719;48.188;11.618;2023-11-19T09:33:26;1999.90;;;999.90;;
25915;SDS011;13719;48.188;11.618;2023-11-19T09:35:54;1999.90;;;999.90;;
25915;SDS011;13719;48.188;11.618;2023-11-19T09:38:24;1999.90;;;999.90;;
25915;SDS011;13719;48.188;11.618;2023-11-19T09:40:52;1999.90;;;999.90;;
25915;SDS011;13719;48.188;11.618;2023-11-19T09:43:21;1999.90;;;999.90;;
25915;SDS011;13719;48.188;11.618;2023-11-19T09:45:50;1999.90;;;999.90;;
25915;SDS011;13719;48.188;11.618;2023-11-19T09:48:20;1999.90;;;999.90;;
25915;SDS011;13719;48.188;11.618;2023-11-19T09:50:48;1999.90;;;999.90;;
25915;SDS011;13719;48.188;11.618;2023-11-19T09:53:18;1999.90;;;999.90;;
25915;SDS011;13719;48.188;11.618;2023-11-19T09:55:47;1999.90;;;999.90;;
25915;SDS011;13719;48.188;11.618;2023-11-19T09:58:16;1999.90;;;999.90;;
25915;SDS011;13719;48.188;11.618;2023-11-19T10:00:45;1999.90;;;999.90;;
25915;SDS011;13719;48.188;11.618;2023-11-19T10:03:34;1999.90;;;999.90;;
25915;SDS011;13719;48.188;11.618;2023-11-19T10:06:06;1999.90;;;999.90;;
25915;SDS011;13719;48.188;11.618;2023-11-19T10:08:36;1999.90;;;999.90;;
25915;SDS011;13719;48.188;11.618;2023-11-19T10:11:05;1999.90;;;999.90;;
25915;SDS011;13719;48.188;11.618;2023-11-19T10:13:34;1999.90;;;999.90;;
25915;SDS011;13719;48.188;11.618;2023-11-19T10:16:07;1999.90;;;999.90;;
25915;SDS011;13719;48.188;11.618;2023-11-19T10:18:39;1999.90;;;999.90;;
25915;SDS011;13719;48.188;11.618;2023-11-19T10:21:11;1999.90;;;999.90;;
25915;SDS011;13719;48.188;11.618;2023-11-19T10:23:47;1999.90;;;999.90;;
25915;SDS011;13719;48.188;11.618;2023-11-19T10:26:17;1999.90;;;999.90;;
25915;SDS011;13719;48.188;11.618;2023-11-19T10:28:46;1999.90;;;999.90;;
25915;SDS011;13719;48.188;11.618;2023-11-19T10:31:15;1999.90;;;999.90;;
25915;SDS011;13719;48.188;11.618;2023-11-19T10:33:45;1999.90;;;999.90;;
25915;SDS011;13719;48.188;11.618;2023-11-19T10:36:14;1999.90;;;999.90;;
25915;SDS011;13719;48.188;11.618;2023-11-19T10:38:51;1999.90;;;999.90;;
25915;SDS011;13719;48.188;11.618;2023-11-19T10:41:26;1999.90;;;999.90;;
25915;SDS011;13719;48.188;11.618;2023-11-19T10:46:23;1999.90;;;999.90;;
25915;SDS011;13719;48.188;11.618;2023-11-19T10:49:05;1999.90;;;999.90;;
25915;SDS011;13719;48.188;11.618;2023-11-19T10:51:33;1999.90;;;999.90;;
25915;SDS011;13719;48.188;11.618;2023-11-19T10:54:02;1999.90;;;999.90;;
25915;SDS011;13719;48.188;11.618;2023-11-19T10:56:33;1999.90;;;999.90;;
25915;SDS011;13719;48.188;11.618;2023-11-19T10:59:02;1999.90;;;999.90;;
25915;SDS011;13719;48.188;11.618;2023-11-19T11:01:48;1999.90;;;999.90;;
25915;SDS011;13719;48.188;11.618;2023-11-19T11:04:22;1999.90;;;999.90;;
25915;SDS011;13719;48.188;11.618;2023-11-19T11:06:52;1999.90;;;999.90;;
25915;SDS011;13719;48.188;11.618;2023-11-19T11:09:22;1999.90;;;999.90;;
25915;SDS011;13719;48.188;11.618;2023-11-19T11:11:51;1999.90;;;999.90;;
25915;SDS011;13719;48.188;11.618;2023-11-19T11:14:20;1999.90;;;999.90;;
25915;SDS011;13719;48.188;11.618;2023-11-19T11:16:49;1999.90;;;999.90;;
25915;SDS011;13719;48.188;11.618;2023-11-19T11:19:18;1999.90;;;999.90;;
25915;SDS011;13719;48.188;11.618;2023-11-19T11:21:49;1999.90;;;999.90;;
25915;SDS011;13719;48.188;11.618;2023-11-19T11:27:14;1999.90;;;999.90;;
25915;SDS011;13719;48.188;11.618;2023-11-19T11:29:46;1999.90;;;999.90;;
25915;SDS011;13719;48.188;11.618;2023-11-19T11:32:18;1999.90;;;999.90;;
25915;SDS011;13719;48.188;11.618;2023-11-19T11:35:08;1999.90;;;999.90;;
25915;SDS011;13719;48.188;11.618;2023-11-19T11:37:44;1999.90;;;999.90;;
25915;SDS011;13719;48.188;11.618;2023-11-19T11:40:14;1999.90;;;999.90;;
25915;SDS011;13719;48.188;11.618;2023-11-19T11:42:44;1999.90;;;999.90;;
25915;SDS011;13719;48.188;11.618;2023-11-19T11:45:13;1999.90;;;999.90;;
25915;SDS011;13719;48.188;11.618;2023-11-19T11:50:28;1999.90;;;999.90;;
25915;SDS011;13719;48.188;11.618;2023-11-19T11:53:17;1999.90;;;999.90;;
25915;SDS011;13719;48.188;11.618;2023-11-19T11:55:53;1999.90;;;999.90;;
25915;SDS011;13719;48.188;11.618;2023-11-19T11:58:25;1999.90;;;999.90;;
25915;SDS011;13719;48.188;11.618;2023-11-19T12:00:52;1999.90;;;999.90;;
25915;SDS011;13719;48.188;11.618;2023-11-19T12:03:21;1999.90;;;999.90;;
25915;SDS011;13719;48.188;11.618;2023-11-19T12:05:50;1999.90;;;999.90;;
25915;SDS011;13719;48.188;11.618;2023-11-19T12:08:24;1999.90;;;999.90;;
25915;SDS011;13719;48.188;11.618;2023-11-19T12:10:53;1999.90;;;999.90;;
25915;SDS011;13719;48.188;11.618;2023-11-19T12:13:24;1999.90;;;999.90;;
25915;SDS011;13719;48.188;11.618;2023-11-19T12:16:08;1999.90;;;999.90;;
25915;SDS011;13719;48.188;11.618;2023-11-19T12:18:38;1999.90;;;999.90;;
25915;SDS011;13719;48.188;11.618;2023-11-19T12:21:08;1999.90;;;999.90;;
25915;SDS011;13719;48.188;11.618;2023-11-19T12:23:47;1999.90;;;999.90;;
25915;SDS011;13719;48.188;11.618;2023-11-19T12:26:30;1999.90;;;999.90;;
25915;SDS011;13719;48.188;11.618;2023-11-19T12:28:59;1999.90;;;999.90;;
25915;SDS011;13719;48.188;11.618;2023-11-19T12:31:33;1999.90;;;999.90;;
25915;SDS011;13719;48.188;11.618;2023-11-19T12:34:06;1999.90;;;999.90;;
25915;SDS011;13719;48.188;11.618;2023-11-19T12:36:39;1999.90;;;999.90;;
25915;SDS011;13719;48.188;11.618;2023-11-19T12:39:10;1999.90;;;999.90;;
25915;SDS011;13719;48.188;11.618;2023-11-19T12:41:51;1999.90;;;999.90;;
25915;SDS011;13719;48.188;11.618;2023-11-19T12:44:21;1999.90;;;999.90;;
25915;SDS011;13719;48.188;11.618;2023-11-19T12:47:02;1999.90;;;999.90;;
25915;SDS011;13719;48.188;11.618;2023-11-19T12:49:32;1999.90;;;999.90;;
25915;SDS011;13719;48.188;11.618;2023-11-19T12:52:00;1999.90;;;999.90;;
25915;SDS011;13719;48.188;11.618;2023-11-19T12:54:35;1999.90;;;999.90;;
25915;SDS011;13719;48.188;11.618;2023-11-19T12:57:04;1999.90;;;999.90;;
25915;SDS011;13719;48.188;11.618;2023-11-19T12:59:32;1999.90;;;999.90;;
25915;SDS011;13719;48.188;11.618;2023-11-19T13:02:01;1999.90;;;999.90;;
25915;SDS011;13719;48.188;11.618;2023-11-19T13:04:32;1999.90;;;999.90;;
25915;SDS011;13719;48.188;11.618;2023-11-19T13:07:01;1999.90;;;999.90;;
25915;SDS011;13719;48.188;11.618;2023-11-19T13:09:32;1.20;;;1.20;;
25915;SDS011;13719;48.188;11.618;2023-11-19T13:12:11;1.15;;;1.15;;
25915;SDS011;13719;48.188;11.618;2023-11-19T13:14:40;1.10;;;1.10;;
25915;SDS011;13719;48.188;11.618;2023-11-19T13:17:12;1.20;;;1.20;;
25915;SDS011;13719;48.188;11.618;2023-11-19T13:19:41;1.30;;;1.30;;
25915;SDS011;13719;48.188;11.618;2023-11-19T13:22:09;1.23;;;1.23;;
25915;SDS011;13719;48.188;11.618;2023-11-19T13:24:38;1.20;;;1.20;;
25915;SDS011;13719;48.188;11.618;2023-11-19T13:27:08;1.33;;;1.33;;
25915;SDS011;13719;48.188;11.618;2023-11-19T13:29:36;1.30;;;1.30;;
25915;SDS011;13719;48.188;11.618;2023-11-19T13:32:05;1.30;;;1.30;;
25915;SDS011;13719;48.188;11.618;2023-11-19T13:34:34;1.25;;;1.25;;
25915;SDS011;13719;48.188;11.618;2023-11-19T13:37:03;1.30;;;1.30;;
25915;SDS011;13719;48.188;11.618;2023-11-19T13:39:31;1.35;;;1.35;;
25915;SDS011;13719;48.188;11.618;2023-11-19T13:42:00;1.20;;;1.20;;
25915;SDS011;13719;48.188;11.618;2023-11-19T13:44:33;1.40;;;1.30;;
25915;SDS011;13719;48.188;11.618;2023-11-19T13:47:01;1.20;;;1.20;;
25915;SDS011;13719;48.188;11.618;2023-11-19T13:49:29;1.40;;;1.40;;
25915;SDS011;13719;48.188;11.618;2023-11-19T13:51:58;1.35;;;1.30;;
25915;SDS011;13719;48.188;11.618;2023-11-19T13:54:26;1.20;;;1.20;;
25915;SDS011;13719;48.188;11.618;2023-11-19T13:56:55;1.30;;;1.30;;
25915;SDS011;13719;48.188;11.618;2023-11-19T13:59:24;1.40;;;1.40;;
25915;SDS011;13719;48.188;11.618;2023-11-19T14:01:54;1.27;;;1.27;;
25915;SDS011;13719;48.188;11.618;2023-11-19T14:04:23;1.30;;;1.30;;
25915;SDS011;13719;48.188;11.618;2023-11-19T14:06:51;1.20;;;1.20;;
25915;SDS011;13719;48.188;11.618;2023-11-19T14:09:21;1.30;;;1.30;;
25915;SDS011;13719;48.188;11.618;2023-11-19T14:11:50;1.30;;;1.30;;
25915;SDS011;13719;48.188;11.618;2023-11-19T14:14:18;1.30;;;1.30;;
25915;SDS011;13719;48.188;11.618;2023-11-19T14:16:47;1.38;;;1.38;;
25915;SDS011;13719;48.188;11.618;2023-11-19T14:19:16;1.25;;;1.25;;
25915;SDS011;13719;48.188;11.618;2023-11-19T14:21:45;1.20;;;1.20;;
25915;SDS011;13719;48.188;11.618;2023-11-19T14:24:14;1.30;;;1.25;;